Norvell, MI (49263)

6:13 PM EST on December 09, 2016 (GMT -0500)
Riverside Road | | Change Station

Elev 1003 ft 42.12 °N, 84.27 °W | Updated 6 minutes ago

Overcast
Overcast
25.3 °F
Feels Like 17 °F
N
7.5
Wind Variable Wind from WNW
Gusts 11.8 mph

Today
High -- | Low -- °F
--% Chance of Precip.
Yesterday
High -- | Low -- °F
Precip. -- in
Pressure 30.45 in
Visibility 9.0 miles
Clouds Few 2900 ft
Overcast 4900 ft
Windchill 17 °F
Dew Point 21 °F
Humidity 82%
Rainfall 0.00 in
Snow Depth Not available.
7:53 AM 5:04 PM
Waxing Gibbous, 78% visible
METAR KJXN 092256Z 28006KT 9SM FEW029 OVC049 M04/M08 A3041 RMK AO2 SNB30E55 SLP311 P0000 T10391078
Pressure 30.45 in
Visibility 9.0 miles
Clouds Few 2900 ft
Overcast 4900 ft
Windchill 17 °F
Dew Point 21 °F
Humidity 82%
Rainfall 0.00 in
Snow Depth Not available.
7:53 AM 5:04 PM
Waxing Gibbous, 78% visible
METAR KJXN 092256Z 28006KT 9SM FEW029 OVC049 M04/M08 A3041 RMK AO2 SNB30E55 SLP311 P0000 T10391078

10-Day Weather Forecast

Almanac

Astronomy

Dec. 09, 2016 Rise Set
Actual Time
Civil Twilight
Nautical Twilight
Astronomical Twilight
Moon
Length of Visible Light
Length of Day
Tomorrow will be .
, % of the Moon is Illuminated

Today's Extremes

State Highs State Lows

Community

WunderPhotos

Upload Photos

1,956,535 photos uploaded!

WunderBlog® & News

Nearby

Air Quality

  Air Quality AQ Index Pollutant
Not available.

Snow Depth

Station Depth Elevation

Earthquake Activity

City Distance Mag. Time & Date
Minimum magnitude displayed is 2.5.

Coastal Water Temperatures

Place Temperature

Stations

Nearby Weather Stations

Station Location Temp. Windchill Dew Point Humidity Wind Precip. Elev Updated Type
                   

Watches & Warnings

There are currently no watches in effect.